createdAt,value
2019-02-15T00:00:07.340Z,2.46
2019-02-15T00:01:07.305Z,2.44
2019-02-15T00:02:07.293Z,2.43
2019-02-15T00:03:07.295Z,2.49
2019-02-15T00:04:07.305Z,2.42
2019-02-15T00:05:07.268Z,2.43
2019-02-15T00:06:07.252Z,2.31
2019-02-15T00:07:07.383Z,2.42
2019-02-15T00:08:07.235Z,2.35
2019-02-15T00:09:07.220Z,2.43
2019-02-15T00:10:07.284Z,2.42
2019-02-15T00:11:07.234Z,2.47
2019-02-15T00:12:07.861Z,2.39
2019-02-15T00:13:13.259Z,2.29
2019-02-15T00:14:08.163Z,2.32
2019-02-15T00:15:07.164Z,2.46
2019-02-15T00:16:07.146Z,2.47
2019-02-15T00:17:07.187Z,2.38
2019-02-15T00:18:07.132Z,2.39
2019-02-15T00:19:07.124Z,2.29
2019-02-15T00:20:07.103Z,2.35
2019-02-15T00:21:07.108Z,2.38
2019-02-15T00:22:07.085Z,2.33
2019-02-15T00:23:07.065Z,2.46
2019-02-15T00:24:07.067Z,2.25
2019-02-15T00:25:07.043Z,2.31
2019-02-15T00:26:07.050Z,2.26
2019-02-15T00:27:07.059Z,2.33
2019-02-15T00:28:07.008Z,2.39
2019-02-15T00:29:07.020Z,2.32
2019-02-15T00:30:06.994Z,2.36
2019-02-15T00:31:06.987Z,2.28
2019-02-15T00:32:06.996Z,2.32
2019-02-15T00:33:06.981Z,2.29
2019-02-15T00:34:07.860Z,2.35
2019-02-15T00:35:07.855Z,2.39
2019-02-15T00:36:06.925Z,2.36
2019-02-15T00:37:07.069Z,2.31
2019-02-15T00:38:06.909Z,2.33
2019-02-15T00:39:06.890Z,2.26
2019-02-15T00:40:06.881Z,2.22
2019-02-15T00:41:06.877Z,2.25
2019-02-15T00:42:06.917Z,2.32
2019-02-15T00:43:06.874Z,2.31
2019-02-15T00:44:06.835Z,2.38
2019-02-15T00:45:06.864Z,2.26
2019-02-15T00:46:06.828Z,2.33
2019-02-15T00:47:06.807Z,2.25
2019-02-15T00:48:06.797Z,2.35
2019-02-15T00:49:06.780Z,2.29
2019-02-15T00:50:06.769Z,2.24
2019-02-15T00:51:06.788Z,2.29
2019-02-15T00:52:06.749Z,2.36
2019-02-15T00:53:06.759Z,2.36
2019-02-15T00:54:13.822Z,2.31
2019-02-15T00:55:06.738Z,2.33
2019-02-15T00:56:06.701Z,2.43
2019-02-15T00:57:06.687Z,2.42
2019-02-15T00:58:06.701Z,2.39
2019-02-15T00:59:06.667Z,2.39
2019-02-15T01:00:06.660Z,2.50
2019-02-15T01:01:06.791Z,2.54
2019-02-15T01:02:06.654Z,2.57
2019-02-15T01:03:06.637Z,2.57
2019-02-15T01:04:06.685Z,2.61
2019-02-15T01:05:06.601Z,2.71
2019-02-15T01:06:06.595Z,2.67
2019-02-15T01:07:06.682Z,2.61
2019-02-15T01:08:06.601Z,2.60
2019-02-15T01:09:06.565Z,2.65
2019-02-15T01:10:06.594Z,2.69
2019-02-15T01:11:06.549Z,2.74
2019-02-15T01:12:06.547Z,2.89
2019-02-15T01:13:06.536Z,2.86
2019-02-15T01:14:06.507Z,2.87
2019-02-15T01:15:06.522Z,2.83
2019-02-15T01:16:06.505Z,2.85
2019-02-15T01:17:06.474Z,2.85
2019-02-15T01:18:06.464Z,2.83
2019-02-15T01:19:06.453Z,2.77
2019-02-15T01:20:06.595Z,2.85
2019-02-15T01:21:06.431Z,2.79
2019-02-15T01:22:06.421Z,2.83
2019-02-15T01:23:06.414Z,2.87
2019-02-15T01:24:06.394Z,2.69
2019-02-15T01:25:06.403Z,2.80
2019-02-15T01:26:06.409Z,2.71
2019-02-15T01:27:06.359Z,2.74
2019-02-15T01:28:06.352Z,2.77
2019-02-15T01:29:06.373Z,2.74
2019-02-15T01:30:06.337Z,2.68
2019-02-15T01:31:06.324Z,2.57
2019-02-15T01:32:06.330Z,2.56
2019-02-15T01:33:06.304Z,2.60
2019-02-15T01:34:06.282Z,2.50
2019-02-15T01:35:06.270Z,2.60
2019-02-15T01:36:06.263Z,2.54
2019-02-15T01:37:06.272Z,2.61
2019-02-15T01:38:06.239Z,2.60
2019-02-15T01:39:06.254Z,2.54
2019-02-15T01:40:06.219Z,2.49
2019-02-15T01:41:06.224Z,2.54
2019-02-15T01:42:06.219Z,2.57
2019-02-15T01:43:06.188Z,2.56
2019-02-15T01:44:06.186Z,2.67
2019-02-15T01:45:06.198Z,2.65
2019-02-15T01:46:06.148Z,2.62
2019-02-15T01:47:06.175Z,2.56
2019-02-15T01:48:06.129Z,2.60
2019-02-15T01:49:06.146Z,2.61
2019-02-15T01:50:06.129Z,2.61
2019-02-15T01:51:06.100Z,2.69
2019-02-15T01:52:06.093Z,2.69
2019-02-15T01:53:06.079Z,2.68
2019-02-15T01:54:06.083Z,2.79
2019-02-15T01:55:06.099Z,2.77
2019-02-15T01:56:06.046Z,2.87
2019-02-15T01:57:06.030Z,2.79
2019-02-15T01:58:06.016Z,2.90
2019-02-15T01:59:06.008Z,2.86
2019-02-15T02:00:05.998Z,2.85
2019-02-15T02:01:06.014Z,2.77
2019-02-15T02:02:05.998Z,2.83
2019-02-15T02:03:05.965Z,2.87
2019-02-15T02:04:05.950Z,2.85
2019-02-15T02:05:05.959Z,2.89
2019-02-15T02:06:06.098Z,2.90
2019-02-15T02:07:05.926Z,2.86
2019-02-15T02:08:06.890Z,2.86
2019-02-15T02:09:05.926Z,2.77
2019-02-15T02:10:05.886Z,2.83
2019-02-15T02:11:05.884Z,2.75
2019-02-15T02:12:05.908Z,2.75
2019-02-15T02:13:05.856Z,2.74
2019-02-15T02:14:05.860Z,2.79
2019-02-15T02:15:05.833Z,2.74
2019-02-15T02:16:05.838Z,2.69
2019-02-15T02:17:05.814Z,2.64
2019-02-15T02:18:05.819Z,2.77
2019-02-15T02:19:05.788Z,2.71
2019-02-15T02:20:05.777Z,2.75
2019-02-15T02:21:05.788Z,2.65
2019-02-15T02:22:05.752Z,2.57
2019-02-15T02:23:05.783Z,2.64
2019-02-15T02:24:05.729Z,2.62
2019-02-15T02:25:05.726Z,2.61
2019-02-15T02:26:05.715Z,2.56
2019-02-15T02:27:05.732Z,2.56
2019-02-15T02:28:05.698Z,2.49
2019-02-15T02:29:05.682Z,2.42
2019-02-15T02:30:05.712Z,2.49
2019-02-15T02:31:05.663Z,2.44
2019-02-15T02:32:05.653Z,2.39
2019-02-15T02:33:05.726Z,2.43
2019-02-15T02:34:05.710Z,2.46
2019-02-15T02:35:05.636Z,2.43
2019-02-15T02:36:05.607Z,2.44
2019-02-15T02:37:05.591Z,2.43
2019-02-15T02:38:05.587Z,2.46
2019-02-15T02:39:05.572Z,2.39
2019-02-15T02:40:05.556Z,2.49
2019-02-15T02:41:05.582Z,2.44
2019-02-15T02:42:05.538Z,2.47
2019-02-15T02:43:05.528Z,2.54
2019-02-15T02:44:05.519Z,2.46
2019-02-15T02:45:05.511Z,2.44
2019-02-15T02:46:05.491Z,2.56
2019-02-15T02:47:05.500Z,2.43
2019-02-15T02:48:05.477Z,2.46
2019-02-15T02:49:05.476Z,2.43
2019-02-15T02:50:05.450Z,2.49
2019-02-15T02:51:05.440Z,2.44
2019-02-15T02:52:05.487Z,2.46
2019-02-15T02:53:05.451Z,2.47
2019-02-15T02:54:05.399Z,2.44
2019-02-15T02:55:05.399Z,2.43
2019-02-15T02:56:05.440Z,2.46
2019-02-15T02:57:05.421Z,2.47
2019-02-15T02:58:05.365Z,2.51
2019-02-15T02:59:05.350Z,2.49
2019-02-15T03:00:05.353Z,2.50
2019-02-15T03:01:05.349Z,2.44
2019-02-15T03:02:05.319Z,2.42
2019-02-15T03:03:05.312Z,2.42
2019-02-15T03:04:05.297Z,2.46
2019-02-15T03:05:05.284Z,2.44
2019-02-15T03:06:05.298Z,2.51
2019-02-15T03:07:05.271Z,2.46
2019-02-15T03:08:05.253Z,2.39
2019-02-15T03:09:05.241Z,2.42
2019-02-15T03:10:05.246Z,2.39
2019-02-15T03:11:05.242Z,2.42
2019-02-15T03:12:05.216Z,2.47
2019-02-15T03:13:05.216Z,2.42
2019-02-15T03:14:11.629Z,2.53
2019-02-15T03:15:06.211Z,2.49
2019-02-15T03:16:05.296Z,2.57
2019-02-15T03:17:05.179Z,2.53
2019-02-15T03:18:05.172Z,2.43
2019-02-15T03:19:05.171Z,2.62
2019-02-15T03:20:05.125Z,2.53
2019-02-15T03:21:05.128Z,2.53
2019-02-15T03:22:05.098Z,2.47
2019-02-15T03:23:05.094Z,2.39
2019-02-15T03:24:05.101Z,2.47
2019-02-15T03:25:05.067Z,2.49
2019-02-15T03:26:05.055Z,2.46
2019-02-15T03:27:05.041Z,2.33
2019-02-15T03:28:05.039Z,2.29
2019-02-15T03:29:05.040Z,2.32
2019-02-15T03:30:05.007Z,2.29
2019-02-15T03:31:05.018Z,2.28
2019-02-15T03:32:05.072Z,2.25
2019-02-15T03:33:05.007Z,2.25
2019-02-15T03:34:05.021Z,2.14
2019-02-15T03:35:05.046Z,2.15
2019-02-15T03:36:04.949Z,2.14
2019-02-15T03:37:04.931Z,2.24
2019-02-15T03:38:04.923Z,2.14
2019-02-15T03:39:04.907Z,2.11
2019-02-15T03:40:04.928Z,2.08
2019-02-15T03:41:04.888Z,2.10
2019-02-15T03:42:04.892Z,2.13
2019-02-15T03:43:04.864Z,2.11
2019-02-15T03:44:04.866Z,2.13
2019-02-15T03:45:04.844Z,2.06
2019-02-15T03:46:04.854Z,1.99
2019-02-15T03:47:04.825Z,2.06
2019-02-15T03:48:04.820Z,2.06
2019-02-15T03:49:04.799Z,2.06
2019-02-15T03:50:05.093Z,2.02
2019-02-15T03:51:04.801Z,2.08
2019-02-15T03:52:04.766Z,2.02
2019-02-15T03:53:04.784Z,1.89
2019-02-15T03:54:04.763Z,1.91
2019-02-15T03:55:04.734Z,1.95
2019-02-15T03:56:04.918Z,1.89
2019-02-15T03:57:04.741Z,1.88
2019-02-15T03:58:04.727Z,1.91
2019-02-15T03:59:04.764Z,1.92
2019-02-15T04:00:04.685Z,1.95
2019-02-15T04:01:04.674Z,1.89
2019-02-15T04:02:04.690Z,1.89
2019-02-15T04:03:04.648Z,1.84
2019-02-15T04:04:04.636Z,1.78
2019-02-15T04:05:04.622Z,1.88
2019-02-15T04:06:04.608Z,1.78
2019-02-15T04:07:04.605Z,1.84
2019-02-15T04:08:04.613Z,1.78
2019-02-15T04:09:04.594Z,1.71
2019-02-15T04:10:04.564Z,1.67
2019-02-15T04:11:04.562Z,1.73
2019-02-15T04:12:04.566Z,1.73
2019-02-15T04:13:04.541Z,1.67
2019-02-15T04:14:04.546Z,1.62
2019-02-15T04:15:04.578Z,1.56
2019-02-15T04:16:04.534Z,1.60
2019-02-15T04:17:04.495Z,1.59
2019-02-15T04:18:04.482Z,1.53
2019-02-15T04:19:04.473Z,1.62
2019-02-15T04:20:04.472Z,1.62
2019-02-15T04:21:04.463Z,1.66
2019-02-15T04:22:04.444Z,1.53
2019-02-15T04:23:04.446Z,1.60
2019-02-15T04:24:04.418Z,1.60
2019-02-15T04:25:04.405Z,1.60
2019-02-15T04:26:04.440Z,1.60
2019-02-15T04:27:04.389Z,1.55
2019-02-15T04:28:04.367Z,1.55
2019-02-15T04:29:04.354Z,1.48
2019-02-15T04:30:04.345Z,1.52
2019-02-15T04:31:04.336Z,1.55
2019-02-15T04:32:04.361Z,1.56
2019-02-15T04:33:04.321Z,1.50
2019-02-15T04:34:04.301Z,1.53
2019-02-15T04:35:04.293Z,1.42
2019-02-15T04:36:04.285Z,1.45
2019-02-15T04:37:04.290Z,1.41
2019-02-15T04:38:04.263Z,1.41
2019-02-15T04:39:04.271Z,1.44
2019-02-15T04:40:04.240Z,1.42
2019-02-15T04:41:04.257Z,1.35
2019-02-15T04:42:04.305Z,1.42
2019-02-15T04:43:04.226Z,1.42
2019-02-15T04:44:04.194Z,1.49
2019-02-15T04:45:04.194Z,1.42
2019-02-15T04:46:04.179Z,1.45
2019-02-15T04:47:04.158Z,1.41
2019-02-15T04:48:04.185Z,1.38
2019-02-15T04:49:04.154Z,1.26
2019-02-15T04:50:04.145Z,1.42
2019-02-15T04:51:04.127Z,1.32
2019-02-15T04:52:04.153Z,1.32
2019-02-15T04:53:04.132Z,1.32
2019-02-15T04:54:04.114Z,1.32
2019-02-15T04:55:04.095Z,1.22
2019-02-15T04:56:04.064Z,1.30
2019-02-15T04:57:04.054Z,1.26
2019-02-15T04:58:04.220Z,1.24
2019-02-15T04:59:04.064Z,1.22
2019-02-15T05:00:04.031Z,1.24
2019-02-15T05:01:04.066Z,1.32
2019-02-15T05:02:04.004Z,1.28
2019-02-15T05:03:03.985Z,1.34
2019-02-15T05:04:03.979Z,1.34
2019-02-15T05:05:03.992Z,1.32
2019-02-15T05:06:03.974Z,1.23
2019-02-15T05:07:03.946Z,1.30
2019-02-15T05:08:03.931Z,1.30
2019-02-15T05:09:04.916Z,1.32
2019-02-15T05:10:03.939Z,1.31
2019-02-15T05:11:03.931Z,1.26
2019-02-15T05:12:03.893Z,1.32
2019-02-15T05:13:03.881Z,1.30
2019-02-15T05:14:03.875Z,1.24
2019-02-15T05:15:03.860Z,1.17
2019-02-15T05:16:03.871Z,1.19
2019-02-15T05:17:03.845Z,1.17
2019-02-15T05:18:03.825Z,1.22
2019-02-15T05:19:03.814Z,1.20
2019-02-15T05:20:03.801Z,1.14
2019-02-15T05:21:03.788Z,1.14
2019-02-15T05:22:04.412Z,1.12
2019-02-15T05:23:03.795Z,1.12
2019-02-15T05:24:03.772Z,1.08
2019-02-15T05:25:04.419Z,1.08
2019-02-15T05:26:03.788Z,1.14
2019-02-15T05:27:03.738Z,1.04
2019-02-15T05:28:03.816Z,1.04
2019-02-15T05:29:03.712Z,1.14
2019-02-15T05:30:03.700Z,1.02
2019-02-15T05:31:03.683Z,1.04
2019-02-15T05:32:03.707Z,1.05
2019-02-15T05:33:03.678Z,1.02
2019-02-15T05:34:03.647Z,1.06
2019-02-15T05:35:03.634Z,1.02
2019-02-15T05:36:03.623Z,1.06
2019-02-15T05:37:03.610Z,1.01
2019-02-15T05:38:03.633Z,0.98
2019-02-15T05:39:03.595Z,0.98
2019-02-15T05:40:03.590Z,0.88
2019-02-15T05:41:03.679Z,0.95
2019-02-15T05:42:03.572Z,0.86
2019-02-15T05:43:03.591Z,0.87
2019-02-15T05:44:03.578Z,0.91
2019-02-15T05:45:04.319Z,0.87
2019-02-15T05:46:03.520Z,0.86
2019-02-15T05:47:03.578Z,0.96
2019-02-15T05:48:03.523Z,1.02
2019-02-15T05:49:03.481Z,1.04
2019-02-15T05:50:03.531Z,1.16
2019-02-15T05:51:03.466Z,1.22
2019-02-15T05:52:03.458Z,1.24
2019-02-15T05:53:03.476Z,1.28
2019-02-15T05:54:03.452Z,1.24
2019-02-15T05:55:03.437Z,1.26
2019-02-15T05:56:03.412Z,1.20
2019-02-15T05:57:03.399Z,1.19
2019-02-15T05:58:03.396Z,1.16
2019-02-15T05:59:03.416Z,1.20
2019-02-15T06:00:03.363Z,1.19
2019-02-15T06:01:03.358Z,1.08
2019-02-15T06:02:03.357Z,1.05
2019-02-15T06:03:03.334Z,1.13
2019-02-15T06:04:03.323Z,1.05
2019-02-15T06:05:03.327Z,1.06
2019-02-15T06:06:03.294Z,1.04
2019-02-15T06:07:03.298Z,1.02
2019-02-15T06:08:03.280Z,1.05
2019-02-15T06:09:03.302Z,1.04
2019-02-15T06:10:03.265Z,0.96
2019-02-15T06:11:07.601Z,0.94
2019-02-15T06:12:03.236Z,0.94
2019-02-15T06:13:03.251Z,0.98
2019-02-15T06:14:03.346Z,0.84
2019-02-15T06:15:14.418Z,0.87
2019-02-15T06:16:04.190Z,0.95
2019-02-15T06:17:03.257Z,0.88
2019-02-15T06:18:03.178Z,0.80
2019-02-15T06:19:03.165Z,0.81
2019-02-15T06:20:03.180Z,0.87
2019-02-15T06:21:03.142Z,0.84
2019-02-15T06:22:03.129Z,0.92
2019-02-15T06:23:03.114Z,0.94
2019-02-15T06:24:03.123Z,0.83
2019-02-15T06:25:03.131Z,0.91
2019-02-15T06:26:03.136Z,0.91
2019-02-15T06:27:03.070Z,0.94
2019-02-15T06:28:03.069Z,0.84
2019-02-15T06:29:03.049Z,0.91
2019-02-15T06:30:03.037Z,0.81
2019-02-15T06:31:03.057Z,0.80
2019-02-15T06:32:03.014Z,0.68
2019-02-15T06:33:03.004Z,0.69
2019-02-15T06:34:03.008Z,0.81
2019-02-15T06:35:02.978Z,0.76
2019-02-15T06:36:02.992Z,0.70
2019-02-15T06:37:02.969Z,0.77
2019-02-15T06:38:02.951Z,0.70
2019-02-15T06:39:02.940Z,0.68
2019-02-15T06:40:02.932Z,0.70
2019-02-15T06:41:02.920Z,0.65
2019-02-15T06:42:02.929Z,0.66
2019-02-15T06:43:02.892Z,0.68
2019-02-15T06:44:02.880Z,0.62
2019-02-15T06:45:02.876Z,0.58
2019-02-15T06:46:02.865Z,0.56
2019-02-15T06:47:03.020Z,0.68
2019-02-15T06:48:02.861Z,0.60
2019-02-15T06:49:02.832Z,0.59
2019-02-15T06:50:02.934Z,0.58
2019-02-15T06:51:02.806Z,0.58
2019-02-15T06:52:02.797Z,0.59
2019-02-15T06:53:02.883Z,0.58
2019-02-15T06:55:09.908Z,0.59
2019-02-15T06:56:02.759Z,0.58
2019-02-15T06:57:02.747Z,0.56
2019-02-15T06:58:02.728Z,0.60
2019-02-15T06:59:02.739Z,0.55
2019-02-15T07:00:02.710Z,0.56
2019-02-15T07:01:02.836Z,0.44
2019-02-15T07:02:02.725Z,0.55
2019-02-15T07:03:02.670Z,0.46
2019-02-15T07:04:02.694Z,0.46
2019-02-15T07:05:02.650Z,0.46
2019-02-15T07:06:02.666Z,0.47
2019-02-15T07:07:02.627Z,0.46
2019-02-15T07:08:02.629Z,0.44
2019-02-15T07:09:02.625Z,0.47
2019-02-15T07:10:02.594Z,0.46
2019-02-15T07:11:02.579Z,0.41
2019-02-15T07:12:02.598Z,0.46
2019-02-15T07:13:02.567Z,0.41
2019-02-15T07:14:02.565Z,0.49
2019-02-15T07:15:02.539Z,0.49
2019-02-15T07:16:02.531Z,0.56
2019-02-15T07:17:02.520Z,0.56
2019-02-15T07:18:02.532Z,0.56
2019-02-15T07:19:02.501Z,0.62
2019-02-15T07:20:02.570Z,0.62
2019-02-15T07:21:02.519Z,0.59
2019-02-15T07:22:02.484Z,0.63
2019-02-15T07:23:03.457Z,0.66
2019-02-15T07:24:02.441Z,0.66
2019-02-15T07:25:02.440Z,0.62
2019-02-15T07:26:02.423Z,0.66
2019-02-15T07:27:02.441Z,0.66
2019-02-15T07:28:02.453Z,0.62
2019-02-15T07:29:02.399Z,0.66
2019-02-15T07:30:02.406Z,0.73
2019-02-15T07:31:02.424Z,0.70
2019-02-15T07:32:02.372Z,0.73
2019-02-15T07:33:02.345Z,0.74
2019-02-15T07:34:02.400Z,0.66
2019-02-15T07:35:02.333Z,0.70
2019-02-15T07:36:02.323Z,0.77
2019-02-15T07:37:02.309Z,0.69
2019-02-15T07:38:02.288Z,0.74
2019-02-15T07:39:02.325Z,0.77
2019-02-15T07:40:02.274Z,0.84
2019-02-15T07:41:02.270Z,0.88
2019-02-15T07:42:02.256Z,0.87
2019-02-15T07:43:02.254Z,0.84
2019-02-15T07:44:02.240Z,0.92
2019-02-15T07:45:02.252Z,0.96
2019-02-15T07:46:02.202Z,1.01
2019-02-15T07:47:02.208Z,1.02
2019-02-15T07:48:02.199Z,1.02
2019-02-15T07:49:02.191Z,1.02
2019-02-15T07:50:02.188Z,1.12
2019-02-15T07:51:09.346Z,1.17
2019-02-15T07:52:03.182Z,1.14
2019-02-15T07:53:02.210Z,1.17
2019-02-15T07:54:02.127Z,1.24
2019-02-15T07:55:02.115Z,1.24
2019-02-15T07:56:02.120Z,1.28
2019-02-15T07:57:02.099Z,1.38
2019-02-15T07:58:02.090Z,1.41
2019-02-15T07:59:02.083Z,1.41
2019-02-15T08:00:02.055Z,1.38
2019-02-15T08:01:02.077Z,1.60
2019-02-15T08:02:02.348Z,1.56
2019-02-15T08:03:02.036Z,1.67
2019-02-15T08:04:02.144Z,1.59
2019-02-15T08:05:02.006Z,1.62
2019-02-15T08:06:02.029Z,1.63
2019-02-15T08:07:01.985Z,1.76
2019-02-15T08:08:01.976Z,1.85
2019-02-15T08:09:01.963Z,1.99
2019-02-15T08:10:01.946Z,2.13
2019-02-15T08:11:01.942Z,2.15
2019-02-15T08:12:01.953Z,2.24
2019-02-15T08:13:01.905Z,2.33
2019-02-15T08:14:01.908Z,2.56
2019-02-15T08:15:01.895Z,2.61
2019-02-15T08:16:02.885Z,2.93
2019-02-15T08:17:01.899Z,3.14
2019-02-15T08:18:01.887Z,3.41
2019-02-15T08:19:01.841Z,3.41
2019-02-15T08:20:01.986Z,3.78
2019-02-15T08:21:01.840Z,4.02
2019-02-15T08:22:01.831Z,4.20
2019-02-15T08:23:01.859Z,4.56
2019-02-15T08:24:01.827Z,4.63
2019-02-15T08:25:02.910Z,4.93
2019-02-15T08:26:01.774Z,5.21
2019-02-15T08:27:01.765Z,5.48
2019-02-15T08:28:01.768Z,5.66
2019-02-15T08:29:01.733Z,5.87
2019-02-15T08:30:01.740Z,6.01
2019-02-15T08:31:01.716Z,6.19
2019-02-15T08:32:01.712Z,6.31
2019-02-15T08:33:01.703Z,6.44
2019-02-15T08:34:01.695Z,6.69
2019-02-15T08:35:01.706Z,6.84
2019-02-15T08:36:01.663Z,6.92
2019-02-15T08:37:01.652Z,7.13
2019-02-15T08:38:01.640Z,7.29
2019-02-15T08:39:01.630Z,7.36
2019-02-15T08:40:01.645Z,7.45
2019-02-15T08:41:01.629Z,7.48
2019-02-15T08:42:04.515Z,7.57
2019-02-15T08:43:01.582Z,7.72
2019-02-15T08:44:01.578Z,7.67
2019-02-15T08:45:01.574Z,7.82
2019-02-15T08:46:03.300Z,7.88
2019-02-15T08:47:01.776Z,8.05
2019-02-15T08:48:01.524Z,7.87
2019-02-15T08:49:01.505Z,8.05
2019-02-15T08:50:01.501Z,8.05
2019-02-15T08:51:01.498Z,8.06
2019-02-15T08:52:01.531Z,8.12
2019-02-15T08:53:01.482Z,8.19
2019-02-15T08:54:01.460Z,8.24
2019-02-15T08:55:01.444Z,8.30
2019-02-15T08:56:01.428Z,8.31
2019-02-15T08:57:01.440Z,8.41
2019-02-15T08:58:01.448Z,8.41
2019-02-15T08:59:02.031Z,8.42
2019-02-15T09:00:01.383Z,8.53
2019-02-15T09:01:01.381Z,8.56
2019-02-15T09:02:01.371Z,8.56
2019-02-15T09:03:01.507Z,8.66
2019-02-15T09:04:01.341Z,8.69
2019-02-15T09:05:02.117Z,8.69
2019-02-15T09:06:01.357Z,8.79
2019-02-15T09:07:01.307Z,8.79
2019-02-15T09:08:01.340Z,8.81
2019-02-15T09:09:01.288Z,8.95
2019-02-15T09:10:01.284Z,8.81
2019-02-15T09:11:02.396Z,8.97
2019-02-15T09:12:01.257Z,8.94
2019-02-15T09:13:01.268Z,9.13
2019-02-15T09:14:01.235Z,9.21
2019-02-15T09:15:01.240Z,9.08
2019-02-15T09:16:09.839Z,9.21
2019-02-15T09:17:02.210Z,9.26
2019-02-15T09:18:01.189Z,9.34
2019-02-15T09:19:01.185Z,9.32
2019-02-15T09:20:01.164Z,9.43
2019-02-15T09:21:01.181Z,9.41
2019-02-15T09:22:01.238Z,9.40
2019-02-15T09:23:01.161Z,9.44
2019-02-15T09:24:01.123Z,9.50
2019-02-15T09:25:01.114Z,9.51
2019-02-15T09:26:01.147Z,9.55
2019-02-15T09:27:01.268Z,9.59
2019-02-15T09:28:01.109Z,9.65
2019-02-15T09:29:01.066Z,9.62
2019-02-15T09:30:01.102Z,9.61
2019-02-15T09:31:01.074Z,9.73
2019-02-15T09:32:01.029Z,9.74
2019-02-15T09:33:01.043Z,9.72
2019-02-15T09:34:01.037Z,9.74
2019-02-15T09:35:00.997Z,9.74
2019-02-15T09:36:00.988Z,9.79
2019-02-15T09:37:00.972Z,9.86
2019-02-15T09:38:01.000Z,9.80
2019-02-15T09:39:00.959Z,9.97
2019-02-15T09:40:00.944Z,9.97
2019-02-15T09:41:00.955Z,10.01
2019-02-15T09:42:00.931Z,10.13
2019-02-15T09:43:01.052Z,10.09
2019-02-15T09:44:00.910Z,10.09
2019-02-15T09:45:00.897Z,10.19
2019-02-15T09:46:00.984Z,10.28
2019-02-15T09:47:00.876Z,10.31
2019-02-15T09:48:00.863Z,10.25
2019-02-15T09:49:00.864Z,10.38
2019-02-15T09:50:00.828Z,10.31
2019-02-15T09:51:00.821Z,10.38
2019-02-15T09:52:00.824Z,10.49
2019-02-15T09:53:00.828Z,10.41
2019-02-15T09:54:00.788Z,10.48
2019-02-15T09:55:00.774Z,10.46
2019-02-15T09:56:00.762Z,10.57
2019-02-15T09:57:00.750Z,10.60
2019-02-15T09:58:00.776Z,10.67
2019-02-15T09:59:01.475Z,10.64
2019-02-15T10:00:00.726Z,10.71
2019-02-15T10:01:00.709Z,10.72
2019-02-15T10:02:00.747Z,10.69
2019-02-15T10:03:00.704Z,10.86
2019-02-15T10:04:00.676Z,10.69
2019-02-15T10:05:00.754Z,10.72
2019-02-15T10:06:00.679Z,10.72
2019-02-15T10:07:00.645Z,10.86
2019-02-15T10:08:00.648Z,10.90
2019-02-15T10:09:00.630Z,10.92
2019-02-15T10:10:00.615Z,11.00
2019-02-15T10:11:00.590Z,11.02
2019-02-15T10:12:00.607Z,11.05
2019-02-15T10:13:00.605Z,11.07
2019-02-15T10:14:00.585Z,11.02
2019-02-15T10:15:00.577Z,11.08
2019-02-15T10:16:00.572Z,11.14
2019-02-15T10:17:00.522Z,11.14
2019-02-15T10:18:00.518Z,11.18
2019-02-15T10:19:00.515Z,11.22
2019-02-15T10:20:00.528Z,11.29
2019-02-15T10:21:00.478Z,11.29
2019-02-15T10:22:00.467Z,11.33
2019-02-15T10:23:00.525Z,11.48
2019-02-15T10:24:00.455Z,11.50
2019-02-15T10:25:00.445Z,11.62
2019-02-15T10:26:00.425Z,11.68
2019-02-15T10:27:00.413Z,11.68
2019-02-15T10:28:00.408Z,11.72
2019-02-15T10:29:00.409Z,11.70
2019-02-15T10:30:02.424Z,11.75
2019-02-15T10:31:00.365Z,11.81
2019-02-15T10:32:00.365Z,11.77
2019-02-15T10:33:00.379Z,11.80
2019-02-15T10:34:00.354Z,11.78
2019-02-15T10:35:00.414Z,11.87
2019-02-15T10:36:00.313Z,11.87
2019-02-15T10:37:00.301Z,11.90
2019-02-15T10:38:00.357Z,11.99
2019-02-15T10:39:00.307Z,12.02
2019-02-15T10:40:00.338Z,12.00
2019-02-15T10:41:00.274Z,12.09
2019-02-15T10:42:00.252Z,12.13
2019-02-15T10:43:00.266Z,12.04
2019-02-15T10:44:00.228Z,12.10
2019-02-15T10:45:00.238Z,12.20
2019-02-15T10:46:00.227Z,12.29
2019-02-15T10:47:00.195Z,12.21
2019-02-15T10:48:00.207Z,12.24
2019-02-15T10:49:00.206Z,12.25
2019-02-15T10:50:00.313Z,12.22
2019-02-15T10:51:00.142Z,12.31
2019-02-15T10:52:00.167Z,12.29
2019-02-15T10:53:00.130Z,12.35
2019-02-15T10:54:00.227Z,12.42
2019-02-15T10:55:00.285Z,12.45
2019-02-15T10:56:00.096Z,12.49
2019-02-15T10:57:00.075Z,12.54
2019-02-15T10:58:00.087Z,12.49
2019-02-15T10:59:00.066Z,12.53
2019-02-15T11:00:00.289Z,12.57
2019-02-15T11:01:00.069Z,12.54
2019-02-15T11:02:00.022Z,12.57
2019-02-15T11:03:00.027Z,12.53
2019-02-15T11:04:00.092Z,12.54
2019-02-15T11:05:00.002Z,12.65
2019-02-15T11:05:59.972Z,12.65
2019-02-15T11:07:00.001Z,12.68
2019-02-15T11:07:59.976Z,12.68
2019-02-15T11:08:59.975Z,12.72
2019-02-15T11:09:59.936Z,12.78
2019-02-15T11:10:59.960Z,12.90
2019-02-15T11:11:59.914Z,12.90
2019-02-15T11:12:59.921Z,12.98
2019-02-15T11:13:59.894Z,12.98
2019-02-15T11:14:59.885Z,12.95
2019-02-15T11:15:59.876Z,12.98
2019-02-15T11:16:59.867Z,13.00
2019-02-15T11:17:59.908Z,13.04
2019-02-15T11:18:59.869Z,13.05
2019-02-15T11:19:59.823Z,12.95
2019-02-15T11:20:59.848Z,13.04
2019-02-15T11:21:59.801Z,13.08
2019-02-15T11:22:59.840Z,13.12
2019-02-15T11:23:59.784Z,13.09
2019-02-15T11:24:59.767Z,13.18
2019-02-15T11:25:59.750Z,13.15
2019-02-15T11:26:59.767Z,13.11
2019-02-15T11:27:59.767Z,13.16
2019-02-15T11:28:59.757Z,13.25
2019-02-15T11:29:59.711Z,13.18
2019-02-15T11:30:59.703Z,13.23
2019-02-15T11:31:59.695Z,13.31
2019-02-15T11:32:59.712Z,13.33
2019-02-15T11:33:59.673Z,13.38
2019-02-15T11:34:59.677Z,13.49
2019-02-15T11:35:59.647Z,13.49
2019-02-15T11:36:59.636Z,13.44
2019-02-15T11:37:59.622Z,13.46
2019-02-15T11:38:59.833Z,13.52
2019-02-15T11:39:59.621Z,13.47
2019-02-15T11:40:59.623Z,13.52
2019-02-15T11:41:59.589Z,13.56
2019-02-15T11:42:59.573Z,13.57
2019-02-15T11:43:59.580Z,13.62
2019-02-15T11:44:59.550Z,13.67
2019-02-15T11:45:59.529Z,13.71
2019-02-15T11:46:59.559Z,13.65
2019-02-15T11:47:59.511Z,13.70
2019-02-15T11:48:59.538Z,13.65
2019-02-15T11:49:59.560Z,13.81
2019-02-15T11:50:59.498Z,13.74
2019-02-15T11:51:59.509Z,13.75
2019-02-15T11:52:59.456Z,13.74
2019-02-15T11:53:59.452Z,13.71
2019-02-15T11:54:59.430Z,13.75
2019-02-15T11:55:59.456Z,13.77
2019-02-15T11:56:59.408Z,13.75
2019-02-15T11:57:59.516Z,13.86
2019-02-15T11:58:59.387Z,13.79
2019-02-15T11:59:59.402Z,13.87
2019-02-15T12:00:59.363Z,13.85
2019-02-15T12:02:05.878Z,13.90
2019-02-15T12:03:00.369Z,13.97
2019-02-15T12:03:59.356Z,13.99
2019-02-15T12:04:59.322Z,14.04
2019-02-15T12:05:59.352Z,14.07
2019-02-15T12:06:59.318Z,14.05
2019-02-15T12:07:59.284Z,14.10
2019-02-15T12:08:59.298Z,14.12
2019-02-15T12:09:59.266Z,14.10
2019-02-15T12:10:59.251Z,14.15
2019-02-15T12:11:59.269Z,14.17
2019-02-15T12:12:59.227Z,14.28
2019-02-15T12:13:59.262Z,14.18
2019-02-15T12:14:59.205Z,14.20
2019-02-15T12:15:59.198Z,14.29
2019-02-15T12:17:05.466Z,14.17
2019-02-15T12:18:00.177Z,14.28
2019-02-15T12:18:59.158Z,14.25
2019-02-15T12:19:59.165Z,14.28
2019-02-15T12:20:59.133Z,14.33
2019-02-15T12:21:59.211Z,14.30
2019-02-15T12:22:59.115Z,14.40
2019-02-15T12:23:59.139Z,14.40
2019-02-15T12:24:59.090Z,14.41
2019-02-15T12:25:59.098Z,14.51
2019-02-15T12:26:59.084Z,14.62
2019-02-15T12:27:59.056Z,14.78
2019-02-15T12:28:59.045Z,14.99
2019-02-15T12:29:59.058Z,15.35
2019-02-15T12:30:59.022Z,15.54
2019-02-15T12:31:59.033Z,15.58
2019-02-15T12:32:59.023Z,15.58
2019-02-15T12:33:59.005Z,15.62
2019-02-15T12:34:58.997Z,15.49
2019-02-15T12:35:58.961Z,15.59
2019-02-15T12:36:58.974Z,15.58
2019-02-15T12:37:59.040Z,15.55
2019-02-15T12:38:58.936Z,15.64
2019-02-15T12:39:58.917Z,15.82
2019-02-15T12:40:58.953Z,16.28
2019-02-15T12:41:58.905Z,16.51
2019-02-15T12:42:58.892Z,17.09
2019-02-15T12:43:58.872Z,17.42
2019-02-15T12:44:58.871Z,17.79
2019-02-15T12:45:58.867Z,18.04
2019-02-15T12:46:58.872Z,18.35
2019-02-15T12:47:58.833Z,18.53
2019-02-15T12:48:58.838Z,18.65
2019-02-15T12:49:58.813Z,18.81
2019-02-15T12:50:58.804Z,18.88
2019-02-15T12:51:58.824Z,18.86
2019-02-15T12:52:58.796Z,18.92
2019-02-15T12:53:58.767Z,18.92
2019-02-15T12:55:05.854Z,18.88
2019-02-15T12:55:58.742Z,18.84
2019-02-15T12:56:58.856Z,18.80
2019-02-15T12:57:58.719Z,18.59
2019-02-15T12:58:58.738Z,18.68
2019-02-15T12:59:58.734Z,18.56
2019-02-15T13:00:58.684Z,18.52
2019-02-15T13:01:58.681Z,18.47
2019-02-15T13:02:58.668Z,18.50
2019-02-15T13:03:58.719Z,18.38
2019-02-15T13:04:58.716Z,18.37
2019-02-15T13:05:58.637Z,18.25
2019-02-15T13:06:58.636Z,18.43
2019-02-15T13:07:58.615Z,18.43
2019-02-15T13:08:58.594Z,18.50
2019-02-15T13:09:58.620Z,18.52
2019-02-15T13:10:58.581Z,18.62
2019-02-15T13:11:58.569Z,18.73